createdAt,value
2023-09-02T00:02:16.475Z,100741.13
2023-09-02T00:07:38.217Z,100736.38
2023-09-02T00:13:00.088Z,100736.31
2023-09-02T00:18:21.836Z,100740.00
2023-09-02T00:23:44.067Z,100738.81
2023-09-02T00:29:05.844Z,100744.13
2023-09-02T00:34:27.746Z,100752.81
2023-09-02T00:39:50.371Z,100751.25
2023-09-02T00:45:12.548Z,100759.56
2023-09-02T00:50:35.712Z,100756.56
2023-09-02T00:55:57.470Z,100745.94
2023-09-02T01:01:20.084Z,100745.53
2023-09-02T01:06:42.866Z,100743.34
2023-09-02T01:12:04.852Z,100754.25
2023-09-02T01:17:26.594Z,100748.63
2023-09-02T01:22:54.546Z,100753.31
2023-09-02T01:28:24.436Z,100764.19
2023-09-02T01:33:48.987Z,100759.94
2023-09-02T01:39:11.135Z,100759.69
2023-09-02T01:44:35.442Z,100766.38
2023-09-02T01:49:57.786Z,100760.41
2023-09-02T01:55:19.884Z,100758.38
2023-09-02T02:00:41.732Z,100764.00
2023-09-02T02:06:08.465Z,100758.75
2023-09-02T02:11:30.962Z,100757.22
2023-09-02T02:16:52.676Z,100762.13
2023-09-02T02:22:14.456Z,100761.28
2023-09-02T02:27:36.237Z,100759.31
2023-09-02T02:32:58.058Z,100765.28
2023-09-02T02:38:19.940Z,100759.53
2023-09-02T02:43:41.726Z,100758.47
2023-09-02T02:49:03.489Z,100764.66
2023-09-02T02:54:25.294Z,100769.41
2023-09-02T02:59:47.081Z,100774.47
2023-09-02T03:05:09.024Z,100772.72
2023-09-02T03:10:30.778Z,100765.22
2023-09-02T03:15:54.640Z,100772.75
2023-09-02T03:21:16.430Z,100766.84
2023-09-02T03:26:38.150Z,100757.91
2023-09-02T03:31:59.915Z,100761.53
2023-09-02T03:37:21.697Z,100763.69
2023-09-02T03:42:43.481Z,100774.34
2023-09-02T03:48:05.693Z,100777.22
2023-09-02T03:53:27.945Z,100771.28
2023-09-02T03:58:49.760Z,100772.31
2023-09-02T04:04:11.625Z,100769.00
2023-09-02T04:09:33.378Z,100767.75
2023-09-02T04:14:55.072Z,100773.03
2023-09-02T04:20:17.330Z,100780.66
2023-09-02T04:25:53.021Z,100779.94
2023-09-02T04:31:14.774Z,100773.72
2023-09-02T04:36:36.514Z,100789.22
2023-09-02T04:41:58.261Z,100792.59
2023-09-02T04:47:19.969Z,100804.69
2023-09-02T04:52:41.713Z,100807.72
2023-09-02T04:58:03.583Z,100802.78
2023-09-02T05:03:25.358Z,100813.31
2023-09-02T05:08:47.116Z,100808.59
2023-09-02T05:14:08.842Z,100816.50
2023-09-02T05:19:30.589Z,100834.28
2023-09-02T05:24:53.178Z,100841.00
2023-09-02T05:30:15.003Z,100836.03
2023-09-02T05:35:36.733Z,100831.50
2023-09-02T05:40:58.492Z,100832.53
2023-09-02T05:46:20.292Z,100841.78
2023-09-02T05:51:42.237Z,100843.53
2023-09-02T05:57:04.281Z,100836.78
2023-09-02T06:02:26.064Z,100848.53
2023-09-02T06:07:47.891Z,100858.72
2023-09-02T06:13:09.625Z,100860.41
2023-09-02T06:18:32.896Z,100864.25
2023-09-02T06:23:54.666Z,100863.63
2023-09-02T06:29:16.429Z,100870.41
2023-09-02T06:34:38.220Z,100870.31
2023-09-02T06:39:59.942Z,100862.59
2023-09-02T06:45:21.639Z,100873.59
2023-09-02T06:50:46.255Z,100872.78
2023-09-02T06:56:09.441Z,100888.09
2023-09-02T07:01:31.221Z,100892.84
2023-09-02T07:06:52.954Z,100903.84
2023-09-02T07:12:14.682Z,100908.38
2023-09-02T07:17:36.411Z,100918.81
2023-09-02T07:22:58.203Z,100920.09
2023-09-02T07:28:19.946Z,100921.75
2023-09-02T07:33:42.453Z,100931.28
2023-09-02T07:39:04.569Z,100922.94
2023-09-02T07:44:26.332Z,100938.91
2023-09-02T07:49:47.990Z,100932.63
2023-09-02T07:55:09.769Z,100945.47
2023-09-02T08:00:34.413Z,100942.78
2023-09-02T08:05:56.215Z,100940.81
2023-09-02T08:11:17.956Z,100931.25
2023-09-02T08:16:39.703Z,100936.81
2023-09-02T08:22:01.774Z,100950.91
2023-09-02T08:27:25.836Z,100940.00
2023-09-02T08:32:47.610Z,100942.00
2023-09-02T08:38:09.375Z,100940.84
2023-09-02T08:43:31.972Z,100955.66
2023-09-02T08:48:56.316Z,100958.41
2023-09-02T08:54:19.451Z,100957.63
2023-09-02T08:59:41.140Z,100956.38
2023-09-02T09:05:03.954Z,100949.19
2023-09-02T09:10:25.994Z,100952.09
2023-09-02T09:15:48.103Z,100958.19
2023-09-02T09:21:09.806Z,100953.69
2023-09-02T09:26:32.651Z,100958.00
2023-09-02T09:32:14.433Z,100953.97
2023-09-02T09:37:53.819Z,100958.16
2023-09-02T09:43:18.066Z,100948.22
2023-09-02T09:48:46.909Z,100956.22
2023-09-02T09:54:08.729Z,100957.09
2023-09-02T09:59:30.609Z,100952.38
2023-09-02T10:04:58.431Z,100957.59
2023-09-02T10:10:27.734Z,100950.81
2023-09-02T10:15:49.942Z,100955.16
2023-09-02T10:21:14.510Z,100964.19
2023-09-02T10:26:49.463Z,100956.78
2023-09-02T10:32:12.339Z,100974.78
2023-09-02T10:37:43.241Z,100954.44
2023-09-02T10:43:05.046Z,100968.56
2023-09-02T10:48:26.824Z,100975.66
2023-09-02T10:53:51.321Z,100969.72
2023-09-02T10:59:28.691Z,100972.69
2023-09-02T11:04:57.495Z,100982.63
2023-09-02T11:10:19.558Z,100979.97
2023-09-02T11:15:41.346Z,100974.75
2023-09-02T11:21:03.188Z,100973.75
2023-09-02T11:26:25.057Z,100978.44
2023-09-02T11:32:00.193Z,100983.69
2023-09-02T11:37:31.731Z,100984.34
2023-09-02T11:43:00.620Z,100981.47
2023-09-02T11:48:25.364Z,100969.91
2023-09-02T11:53:47.528Z,100978.31
2023-09-02T11:59:30.844Z,100990.09
2023-09-02T12:04:53.177Z,100993.09
2023-09-02T12:10:17.097Z,100983.97
2023-09-02T12:15:38.960Z,100989.97
2023-09-02T12:21:00.751Z,100987.41
2023-09-02T12:26:22.538Z,100996.06
2023-09-02T12:31:56.609Z,100997.78
2023-09-02T12:37:22.700Z,100996.69
2023-09-02T12:42:54.462Z,101005.28
2023-09-02T12:48:16.393Z,101002.31
2023-09-02T12:53:38.749Z,101001.81
2023-09-02T12:59:00.552Z,100993.00
2023-09-02T13:04:22.405Z,101000.25
2023-09-02T13:09:45.388Z,100994.38
2023-09-02T13:15:08.716Z,100989.00
2023-09-02T13:20:30.463Z,100995.16
2023-09-02T13:25:52.241Z,101009.97
2023-09-02T13:31:14.906Z,101009.78
2023-09-02T13:36:36.718Z,101002.00
2023-09-02T13:42:00.787Z,101015.00
2023-09-02T13:47:22.651Z,101007.31
2023-09-02T13:52:45.466Z,101005.78
2023-09-02T13:58:08.638Z,101013.53
2023-09-02T14:03:30.678Z,100997.25
2023-09-02T14:08:52.543Z,101006.03
2023-09-02T14:14:18.453Z,101019.44
2023-09-02T14:19:40.219Z,101009.50
2023-09-02T14:25:02.113Z,101005.44
2023-09-02T14:30:24.099Z,101018.47
2023-09-02T14:35:46.072Z,101020.09
2023-09-02T14:41:07.811Z,101020.59
2023-09-02T14:46:29.675Z,101023.38
2023-09-02T14:51:51.568Z,101020.50
2023-09-02T14:57:17.582Z,101021.25
2023-09-02T15:02:40.945Z,101034.88
2023-09-02T15:08:03.853Z,101027.00
2023-09-02T15:13:28.263Z,101027.22
2023-09-02T15:18:50.058Z,101036.13
2023-09-02T15:24:11.782Z,101040.25
2023-09-02T15:29:33.548Z,101036.41
2023-09-02T15:34:55.349Z,101044.22
2023-09-02T15:40:25.185Z,101050.75
2023-09-02T15:45:46.972Z,101043.75
2023-09-02T15:51:08.793Z,101044.25
2023-09-02T15:56:30.500Z,101054.41
2023-09-02T16:01:52.364Z,101046.88
2023-09-02T16:07:14.121Z,101059.28
2023-09-02T16:12:35.878Z,101058.84
2023-09-02T16:17:57.795Z,101070.72
2023-09-02T16:23:20.886Z,101068.63
2023-09-02T16:28:43.526Z,101066.59
2023-09-02T16:34:05.349Z,101075.78
2023-09-02T16:39:27.428Z,101076.53
2023-09-02T16:44:49.168Z,101079.91
2023-09-02T16:50:11.991Z,101077.94
2023-09-02T16:55:33.868Z,101083.41
2023-09-02T17:01:05.279Z,101083.03
2023-09-02T17:06:31.862Z,101086.97
2023-09-02T17:11:53.691Z,101080.63
2023-09-02T17:17:15.504Z,101083.72
2023-09-02T17:22:42.050Z,101076.22
2023-09-02T17:28:06.493Z,101089.72
2023-09-02T17:33:28.236Z,101097.25
2023-09-02T17:38:50.033Z,101097.97
2023-09-02T17:44:11.792Z,101111.16
2023-09-02T17:49:33.541Z,101115.56
2023-09-02T17:54:55.328Z,101114.91
2023-09-02T18:00:17.368Z,101127.50
2023-09-02T18:05:39.143Z,101135.00
2023-09-02T18:11:00.916Z,101131.38
2023-09-02T18:16:22.792Z,101136.56
2023-09-02T18:21:44.582Z,101136.50
2023-09-02T18:27:06.948Z,101138.41
2023-09-02T18:32:28.832Z,101140.28
2023-09-02T18:37:50.622Z,101143.50
2023-09-02T18:43:12.401Z,101144.34
2023-09-02T18:48:34.114Z,101155.66
2023-09-02T18:53:57.842Z,101167.53
2023-09-02T18:59:19.714Z,101171.53
2023-09-02T19:04:41.610Z,101177.19
2023-09-02T19:10:03.633Z,101175.22
2023-09-02T19:15:25.384Z,101176.84
2023-09-02T19:20:47.279Z,101185.72
2023-09-02T19:26:09.912Z,101192.31
2023-09-02T19:31:32.027Z,101190.25
2023-09-02T19:36:53.881Z,101185.88
2023-09-02T19:42:15.577Z,101191.81
2023-09-02T19:47:37.347Z,101194.44
2023-09-02T19:52:59.122Z,101200.47
2023-09-02T19:58:20.996Z,101204.84
2023-09-02T20:03:42.869Z,101207.13
2023-09-02T20:09:04.750Z,101210.38
2023-09-02T20:14:26.577Z,101203.59
2023-09-02T20:19:48.369Z,101200.59
2023-09-02T20:25:10.104Z,101215.69
2023-09-02T20:30:31.831Z,101216.34
2023-09-02T20:35:53.644Z,101217.16
2023-09-02T20:41:18.489Z,101216.47
2023-09-02T20:46:40.222Z,101211.78
2023-09-02T20:52:03.799Z,101210.16
2023-09-02T20:57:25.715Z,101212.94
2023-09-02T21:02:47.556Z,101222.38
2023-09-02T21:08:09.818Z,101220.97
2023-09-02T21:13:31.689Z,101232.75
2023-09-02T21:18:53.549Z,101224.78
2023-09-02T21:24:15.357Z,101225.41
2023-09-02T21:29:37.133Z,101218.19
2023-09-02T21:34:58.898Z,101219.00
2023-09-02T21:40:20.662Z,101214.75
2023-09-02T21:45:42.811Z,101216.31
2023-09-02T21:51:06.859Z,101231.78
2023-09-02T21:56:28.681Z,101224.63
2023-09-02T22:01:50.500Z,101221.38
2023-09-02T22:07:12.362Z,101226.47
2023-09-02T22:12:34.143Z,101221.78
2023-09-02T22:17:55.914Z,101217.34
2023-09-02T22:23:20.265Z,101214.81
2023-09-02T22:28:42.242Z,101217.16
2023-09-02T22:34:03.958Z,101220.53
2023-09-02T22:39:27.579Z,101214.28
2023-09-02T22:44:49.420Z,101222.50
2023-09-02T22:50:11.292Z,101224.53
2023-09-02T22:55:34.247Z,101205.81
2023-09-02T23:00:56.002Z,101210.06
2023-09-02T23:06:17.749Z,101207.25
2023-09-02T23:11:39.508Z,101209.22
2023-09-02T23:17:01.306Z,101214.94
2023-09-02T23:22:23.345Z,101217.69
2023-09-02T23:27:49.110Z,101225.59
2023-09-02T23:33:10.817Z,101222.09
2023-09-02T23:38:32.570Z,101226.00
2023-09-02T23:43:54.318Z,101223.31
2023-09-02T23:49:16.108Z,101227.25
2023-09-02T23:54:37.854Z,101223.78
2023-09-02T23:59:59.568Z,101240.50
